createdAt,value
2018-06-10T00:01:44.764Z,17.33
2018-06-10T00:04:20.704Z,16.17
2018-06-10T00:06:56.316Z,17.03
2018-06-10T00:09:31.886Z,18.07
2018-06-10T00:12:07.616Z,18.73
2018-06-10T00:14:43.106Z,19.27
2018-06-10T00:17:18.535Z,18.27
2018-06-10T00:19:55.254Z,19.10
2018-06-10T00:22:32.255Z,20.30
2018-06-10T00:25:09.500Z,18.87
2018-06-10T00:27:46.158Z,20.80
2018-06-10T00:30:23.711Z,20.70
2018-06-10T00:33:00.824Z,20.73
2018-06-10T00:35:37.418Z,20.23
2018-06-10T00:38:13.878Z,19.30
2018-06-10T00:40:50.160Z,20.63
2018-06-10T00:43:25.658Z,18.27
2018-06-10T00:46:01.168Z,18.80
2018-06-10T00:48:36.632Z,18.60
2018-06-10T00:51:12.058Z,18.20
2018-06-10T00:53:47.573Z,18.33
2018-06-10T00:56:57.751Z,18.80
2018-06-10T00:59:34.315Z,18.47
2018-06-10T01:02:10.008Z,19.07
2018-06-10T01:04:45.549Z,19.77
2018-06-10T01:07:21.087Z,19.93
2018-06-10T01:09:56.537Z,21.10
2018-06-10T01:12:32.131Z,21.50
2018-06-10T01:15:08.451Z,20.37
2018-06-10T01:17:44.083Z,20.50
2018-06-10T01:20:19.469Z,21.93
2018-06-10T01:22:55.128Z,16.93
2018-06-10T01:25:30.698Z,19.47
2018-06-10T01:28:06.183Z,18.00
2018-06-10T01:30:41.524Z,18.73
2018-06-10T01:33:17.047Z,19.73
2018-06-10T01:35:52.459Z,17.60
2018-06-10T01:38:28.033Z,18.77
2018-06-10T01:41:03.669Z,18.83
2018-06-10T01:43:39.344Z,19.97
2018-06-10T01:46:14.959Z,19.77
2018-06-10T01:48:50.424Z,20.60
2018-06-10T01:51:25.976Z,19.63
2018-06-10T01:54:01.403Z,21.00
2018-06-10T01:56:36.840Z,19.97
2018-06-10T01:59:12.163Z,21.83
2018-06-10T02:01:49.198Z,22.50
2018-06-10T02:04:26.698Z,20.37
2018-06-10T02:07:02.674Z,19.97
2018-06-10T02:09:38.264Z,20.30
2018-06-10T02:12:13.672Z,20.97
2018-06-10T02:14:49.189Z,19.67
2018-06-10T02:17:24.616Z,20.63
2018-06-10T02:20:00.121Z,19.33
2018-06-10T02:22:35.714Z,19.67
2018-06-10T02:25:11.055Z,20.10
2018-06-10T02:27:46.487Z,21.63
2018-06-10T02:30:22.109Z,21.23
2018-06-10T02:32:57.869Z,22.60
2018-06-10T02:35:33.729Z,21.17
2018-06-10T02:38:09.247Z,18.07
2018-06-10T02:40:44.857Z,18.10
2018-06-10T02:43:20.465Z,18.70
2018-06-10T02:45:55.959Z,18.07
2018-06-10T02:48:31.798Z,19.73
2018-06-10T02:51:07.257Z,20.53
2018-06-10T02:53:42.835Z,20.40
2018-06-10T02:56:18.597Z,21.40
2018-06-10T02:58:54.143Z,21.13
2018-06-10T03:01:29.697Z,18.50
2018-06-10T03:04:05.244Z,17.83
2018-06-10T03:06:40.635Z,17.50
2018-06-10T03:09:16.201Z,18.37
2018-06-10T03:11:51.579Z,17.63
2018-06-10T03:14:27.031Z,18.23
2018-06-10T03:17:02.743Z,17.70
2018-06-10T03:19:38.044Z,16.87
2018-06-10T03:22:13.494Z,16.07
2018-06-10T03:24:48.968Z,17.40
2018-06-10T03:27:24.376Z,17.33
2018-06-10T03:29:59.673Z,18.77
2018-06-10T03:32:35.318Z,18.87
2018-06-10T03:35:10.881Z,17.33
2018-06-10T03:37:46.895Z,15.77
2018-06-10T03:40:22.545Z,15.90
2018-06-10T03:42:58.344Z,15.13
2018-06-10T03:45:34.098Z,14.67
2018-06-10T03:48:09.743Z,16.43
2018-06-10T03:50:45.192Z,15.43
2018-06-10T03:53:20.584Z,16.17
2018-06-10T03:55:56.196Z,14.90
2018-06-10T03:58:32.012Z,15.60
2018-06-10T04:01:07.599Z,14.87
2018-06-10T04:03:43.090Z,14.73
2018-06-10T04:06:18.607Z,14.53
2018-06-10T04:08:53.895Z,14.37
2018-06-10T04:11:29.292Z,13.43
2018-06-10T04:14:04.638Z,13.30
2018-06-10T04:16:40.033Z,14.93
2018-06-10T04:19:15.600Z,13.93
2018-06-10T04:21:51.008Z,14.37
2018-06-10T04:24:26.644Z,14.70
2018-06-10T04:27:02.215Z,14.70
2018-06-10T04:29:37.622Z,14.77
2018-06-10T04:32:13.452Z,14.63
2018-06-10T04:34:49.733Z,14.13
2018-06-10T04:37:25.370Z,14.77
2018-06-10T04:40:00.938Z,13.90
2018-06-10T04:42:36.439Z,13.97
2018-06-10T04:45:12.206Z,13.00
2018-06-10T04:47:47.684Z,13.07
2018-06-10T04:50:23.233Z,12.60
2018-06-10T04:52:58.834Z,11.33
2018-06-10T04:55:34.302Z,12.07
2018-06-10T04:58:09.839Z,11.77
2018-06-10T05:00:45.472Z,13.23
2018-06-10T05:03:21.184Z,13.60
2018-06-10T05:05:56.792Z,13.37
2018-06-10T05:08:32.682Z,13.10
2018-06-10T05:11:08.548Z,13.20
2018-06-10T05:13:43.885Z,12.53
2018-06-10T05:16:19.294Z,12.83
2018-06-10T05:18:54.835Z,13.67
2018-06-10T05:21:30.576Z,13.30
2018-06-10T05:24:06.795Z,13.90
2018-06-10T05:26:42.756Z,14.43
2018-06-10T05:29:23.892Z,14.37
2018-06-10T05:31:59.613Z,13.70
2018-06-10T05:34:35.422Z,14.23
2018-06-10T05:37:11.052Z,13.20
2018-06-10T05:39:46.739Z,15.03
2018-06-10T05:42:22.268Z,14.87
2018-06-10T05:44:58.323Z,14.27
2018-06-10T05:47:33.940Z,16.30
2018-06-10T05:50:09.438Z,16.47
2018-06-10T05:52:45.213Z,16.13
2018-06-10T05:55:20.678Z,16.10
2018-06-10T05:57:56.492Z,14.97
2018-06-10T06:00:32.221Z,16.83
2018-06-10T06:03:07.806Z,16.90
2018-06-10T06:05:43.400Z,17.33
2018-06-10T06:08:18.897Z,16.57
2018-06-10T06:10:54.635Z,17.17
2018-06-10T06:13:29.950Z,17.20
2018-06-10T06:16:05.514Z,16.90
2018-06-10T06:18:41.164Z,16.60
2018-06-10T06:21:16.656Z,15.40
2018-06-10T06:23:52.484Z,15.63
2018-06-10T06:26:28.188Z,16.63
2018-06-10T06:29:03.473Z,15.77
2018-06-10T06:31:39.227Z,16.63
2018-06-10T06:34:15.021Z,15.60
2018-06-10T06:36:50.891Z,15.30
2018-06-10T06:39:26.752Z,14.03
2018-06-10T06:42:02.563Z,14.80
2018-06-10T06:44:38.463Z,14.93
2018-06-10T06:47:14.341Z,15.10
2018-06-10T06:49:51.324Z,13.67
2018-06-10T06:52:29.916Z,13.17
2018-06-10T06:55:07.341Z,15.10
2018-06-10T06:57:44.425Z,14.00
2018-06-10T07:00:20.781Z,14.00
2018-06-10T07:02:58.176Z,12.90
2018-06-10T07:05:34.985Z,13.80
2018-06-10T07:08:10.753Z,13.80
2018-06-10T07:10:46.797Z,12.83
2018-06-10T07:13:22.929Z,11.87
2018-06-10T07:15:59.900Z,13.20
2018-06-10T07:18:36.388Z,13.00
2018-06-10T07:21:13.098Z,11.70
2018-06-10T07:23:49.929Z,11.70
2018-06-10T07:26:26.371Z,12.97
2018-06-10T07:29:05.138Z,12.50
2018-06-10T07:31:42.923Z,13.37
2018-06-10T07:34:19.576Z,11.83
2018-06-10T07:36:55.716Z,10.60
2018-06-10T07:39:34.155Z,10.00
2018-06-10T07:42:11.861Z,10.87
2018-06-10T07:44:50.248Z,9.87
2018-06-10T07:47:27.408Z,6.27
2018-06-10T07:50:08.531Z,6.63
2018-06-10T07:52:44.206Z,6.03
2018-06-10T07:55:19.708Z,6.85
2018-06-10T07:57:55.168Z,5.78
2018-06-10T08:00:30.967Z,6.17
2018-06-10T08:03:06.560Z,5.60
2018-06-10T08:05:42.395Z,6.80
2018-06-10T08:08:18.752Z,8.10
2018-06-10T08:10:54.782Z,6.27
2018-06-10T08:13:30.388Z,4.95
2018-06-10T08:16:05.829Z,5.58
2018-06-10T08:18:41.746Z,5.08
2018-06-10T08:21:17.232Z,5.67
2018-06-10T08:23:56.585Z,4.72
2018-06-10T08:26:32.972Z,4.92
2018-06-10T08:29:08.925Z,4.58
2018-06-10T08:31:47.646Z,4.20
2018-06-10T08:34:23.606Z,5.28
2018-06-10T08:36:59.302Z,5.45
2018-06-10T08:39:34.984Z,7.90
2018-06-10T08:42:10.355Z,4.85
2018-06-10T08:44:45.918Z,3.83
2018-06-10T08:47:21.416Z,5.55
2018-06-10T08:49:57.414Z,5.45
2018-06-10T08:52:33.220Z,5.40
2018-06-10T08:55:11.247Z,4.70
2018-06-10T08:57:47.507Z,3.52
2018-06-10T09:00:23.018Z,3.85
2018-06-10T09:03:06.528Z,3.75
2018-06-10T09:05:42.448Z,4.37
2018-06-10T09:08:18.576Z,4.08
2018-06-10T09:10:56.346Z,4.10
2018-06-10T09:13:38.651Z,4.40
2018-06-10T09:16:22.614Z,5.33
2018-06-10T09:18:59.546Z,5.65
2018-06-10T09:21:36.003Z,7.03
2018-06-10T09:24:12.451Z,6.42
2018-06-10T09:26:48.598Z,4.55
2018-06-10T09:29:25.376Z,4.20
2018-06-10T09:32:08.288Z,3.65
2018-06-10T09:34:44.645Z,3.65
2018-06-10T09:37:20.624Z,4.10
2018-06-10T09:39:56.300Z,4.00
2018-06-10T09:42:32.220Z,4.30
2018-06-10T09:45:11.014Z,4.70
2018-06-10T09:47:55.364Z,4.72
2018-06-10T09:50:36.166Z,4.00
2018-06-10T09:53:11.812Z,4.28
2018-06-10T09:55:47.508Z,3.60
2018-06-10T09:58:25.530Z,3.02
2018-06-10T10:01:01.528Z,3.60
2018-06-10T10:03:37.096Z,3.37
2018-06-10T10:06:13.210Z,3.67
2018-06-10T10:08:50.659Z,4.03
2018-06-10T10:11:27.162Z,3.70
2018-06-10T10:14:02.548Z,4.05
2018-06-10T10:16:38.197Z,4.40
2018-06-10T10:19:13.798Z,3.77
2018-06-10T10:21:51.044Z,4.35
2018-06-10T10:24:26.542Z,5.28
2018-06-10T10:27:02.216Z,5.17
2018-06-10T10:29:37.919Z,4.80
2018-06-10T10:32:13.616Z,4.70
2018-06-10T10:34:49.329Z,4.75
2018-06-10T10:37:25.303Z,4.78
2018-06-10T10:40:01.398Z,4.20
2018-06-10T10:42:39.729Z,4.90
2018-06-10T10:45:19.060Z,4.83
2018-06-10T10:47:54.688Z,4.85
2018-06-10T10:50:30.088Z,4.58
2018-06-10T10:53:05.619Z,4.95
2018-06-10T10:55:41.384Z,5.20
2018-06-10T10:58:17.394Z,4.75
2018-06-10T11:00:53.212Z,5.60
2018-06-10T11:03:29.213Z,4.70
2018-06-10T11:06:05.350Z,4.90
2018-06-10T11:08:41.420Z,4.90
2018-06-10T11:11:17.387Z,4.42
2018-06-10T11:13:53.225Z,5.10
2018-06-10T11:16:30.103Z,5.10
2018-06-10T11:19:09.299Z,6.45
2018-06-10T11:21:44.852Z,5.42
2018-06-10T11:24:20.968Z,5.33
2018-06-10T11:26:57.220Z,5.00
2018-06-10T11:29:32.810Z,4.70
2018-06-10T11:32:09.427Z,4.92
2018-06-10T11:34:47.457Z,4.70
2018-06-10T11:37:25.426Z,5.22
2018-06-10T11:40:02.389Z,5.78
2018-06-10T11:42:39.369Z,5.25
2018-06-10T11:45:18.316Z,4.92
2018-06-10T11:47:57.218Z,4.90
2018-06-10T11:50:34.924Z,5.40
2018-06-10T11:53:12.546Z,5.08
2018-06-10T11:55:51.898Z,4.55
2018-06-10T11:58:29.526Z,5.53
2018-06-10T12:01:06.947Z,5.22
2018-06-10T12:03:44.299Z,5.12
2018-06-10T12:06:19.946Z,4.90
2018-06-10T12:08:55.525Z,5.55
2018-06-10T12:11:31.410Z,5.83
2018-06-10T12:14:07.010Z,6.10
2018-06-10T12:16:43.242Z,5.45
2018-06-10T12:19:19.439Z,5.83
2018-06-10T12:21:55.197Z,6.00
2018-06-10T12:24:31.145Z,5.35
2018-06-10T12:27:06.729Z,5.40
2018-06-10T12:29:42.946Z,4.78
2018-06-10T12:32:18.495Z,5.80
2018-06-10T12:34:54.117Z,5.08
2018-06-10T12:37:29.841Z,4.83
2018-06-10T12:40:06.221Z,5.60
2018-06-10T12:42:42.597Z,5.30
2018-06-10T12:45:18.351Z,5.40
2018-06-10T12:47:54.239Z,5.12
2018-06-10T12:50:32.339Z,5.08
2018-06-10T12:53:08.255Z,5.42
2018-06-10T12:55:43.973Z,6.47
2018-06-10T12:58:19.500Z,5.42
2018-06-10T13:00:55.466Z,5.25
2018-06-10T13:03:31.395Z,5.42
2018-06-10T13:06:07.993Z,5.60
2018-06-10T13:08:44.284Z,6.00
2018-06-10T13:11:20.826Z,5.65
2018-06-10T13:13:59.214Z,5.80
2018-06-10T13:16:35.288Z,7.03
2018-06-10T13:19:12.152Z,5.45
2018-06-10T13:21:48.177Z,5.70
2018-06-10T13:24:23.984Z,5.62
2018-06-10T13:27:00.538Z,6.20
2018-06-10T13:29:36.222Z,5.95
2018-06-10T13:32:12.460Z,5.70
2018-06-10T13:34:48.700Z,6.15
2018-06-10T13:37:25.306Z,5.95
2018-06-10T13:40:02.419Z,5.90
2018-06-10T13:42:41.202Z,5.95
2018-06-10T13:45:20.258Z,5.95
2018-06-10T13:47:56.526Z,5.72
2018-06-10T13:50:33.584Z,6.20
2018-06-10T13:53:10.500Z,6.22
2018-06-10T13:55:48.399Z,6.03
2018-06-10T13:58:28.327Z,5.92
2018-06-10T14:01:05.192Z,7.08
2018-06-10T14:03:43.323Z,7.40
2018-06-10T14:06:21.351Z,6.30
2018-06-10T14:09:02.176Z,6.60
2018-06-10T14:11:40.304Z,6.50
2018-06-10T14:14:21.062Z,7.12
2018-06-10T14:17:02.219Z,7.58
2018-06-10T14:19:39.374Z,7.12
2018-06-10T14:22:20.492Z,6.60
2018-06-10T14:24:57.016Z,6.95
2018-06-10T14:27:36.372Z,6.60
2018-06-10T14:30:15.548Z,6.45
2018-06-10T14:32:54.858Z,6.70
2018-06-10T14:35:30.527Z,6.80
2018-06-10T14:38:06.926Z,6.47
2018-06-10T14:40:42.492Z,7.40
2018-06-10T14:43:18.545Z,7.47
2018-06-10T14:45:54.591Z,7.90
2018-06-10T14:48:30.831Z,7.10
2018-06-10T14:51:11.047Z,6.45
2018-06-10T14:53:52.113Z,6.00
2018-06-10T14:56:36.869Z,5.28
2018-06-10T14:59:19.340Z,5.65
2018-06-10T15:02:04.620Z,5.67
2018-06-10T15:04:42.877Z,6.45
2018-06-10T15:07:20.401Z,5.97
2018-06-10T15:09:58.365Z,6.33
2018-06-10T15:12:35.611Z,6.22
2018-06-10T15:15:11.871Z,7.20
2018-06-10T15:17:48.063Z,6.58
2018-06-10T15:20:26.359Z,7.37
2018-06-10T15:23:04.144Z,6.83
2018-06-10T15:25:41.509Z,7.25
2018-06-10T15:28:20.191Z,6.78
2018-06-10T15:30:57.549Z,7.08
2018-06-10T15:33:35.047Z,6.45
2018-06-10T15:36:12.683Z,6.85
2018-06-10T15:38:53.887Z,7.20
2018-06-10T15:41:35.531Z,7.70
2018-06-10T15:44:13.951Z,7.45
2018-06-10T15:47:04.391Z,7.00
2018-06-10T15:49:46.125Z,6.20
2018-06-10T15:52:34.064Z,5.90
2018-06-10T15:55:16.332Z,6.50
2018-06-10T15:57:57.430Z,6.70
2018-06-10T16:00:36.748Z,7.83
2018-06-10T16:03:15.522Z,6.47
2018-06-10T16:05:53.212Z,7.70
2018-06-10T16:08:33.823Z,7.75
2018-06-10T16:11:17.556Z,7.95
2018-06-10T16:13:53.433Z,7.53
2018-06-10T16:16:31.126Z,7.60
2018-06-10T16:19:08.177Z,6.95
2018-06-10T16:21:46.173Z,6.72
2018-06-10T16:24:26.654Z,5.87
2018-06-10T16:27:06.142Z,5.85
2018-06-10T16:29:43.028Z,5.65
2018-06-10T16:32:20.950Z,5.80
2018-06-10T16:34:58.663Z,10.38
2018-06-10T16:37:36.198Z,6.30
2018-06-10T16:40:15.126Z,6.00
2018-06-10T16:43:16.191Z,6.30
2018-06-10T16:45:54.224Z,6.50
2018-06-10T16:48:32.087Z,5.63
2018-06-10T16:51:10.567Z,5.90
2018-06-10T16:53:53.774Z,6.67
2018-06-10T16:56:32.484Z,6.20
2018-06-10T16:59:11.968Z,5.37
2018-06-10T17:01:49.791Z,6.07
2018-06-10T17:04:25.996Z,6.27
2018-06-10T17:07:01.946Z,5.97
2018-06-10T17:09:40.036Z,4.67
2018-06-10T17:12:15.632Z,5.80
2018-06-10T17:14:51.718Z,6.67
2018-06-10T17:17:27.776Z,5.93
2018-06-10T17:20:04.338Z,5.97
2018-06-10T17:22:39.813Z,6.47
2018-06-10T17:25:15.950Z,6.30
2018-06-10T17:27:51.540Z,6.80
2018-06-10T17:30:28.807Z,9.13
2018-06-10T17:33:05.954Z,6.40
2018-06-10T17:35:46.149Z,5.87
2018-06-10T17:38:21.615Z,6.37
2018-06-10T17:40:57.853Z,6.67
2018-06-10T17:43:36.531Z,6.60
2018-06-10T17:46:12.891Z,6.27
2018-06-10T17:48:49.485Z,6.40
2018-06-10T17:51:29.637Z,7.43
2018-06-10T17:54:17.481Z,6.90
2018-06-10T17:57:08.275Z,6.53
2018-06-10T17:59:52.436Z,6.67
2018-06-10T18:02:41.627Z,6.80
2018-06-10T18:05:20.729Z,6.47
2018-06-10T18:07:56.857Z,6.70
2018-06-10T18:10:36.138Z,7.00
2018-06-10T18:13:15.919Z,6.80
2018-06-10T18:15:53.869Z,6.60
2018-06-10T18:18:31.915Z,6.60
2018-06-10T18:21:16.589Z,7.97
2018-06-10T18:24:30.523Z,15.77
2018-06-10T18:27:15.580Z,7.00
2018-06-10T18:29:55.236Z,7.77
2018-06-10T18:32:35.065Z,6.90
2018-06-10T18:35:12.055Z,6.60
2018-06-10T18:37:48.547Z,6.73
2018-06-10T18:40:27.662Z,6.93
2018-06-10T18:43:06.417Z,6.63
2018-06-10T18:45:48.354Z,6.63
2018-06-10T18:48:24.447Z,7.67
2018-06-10T18:51:00.835Z,7.27
2018-06-10T18:53:36.716Z,7.23
2018-06-10T18:56:12.447Z,7.93
2018-06-10T18:58:48.400Z,7.80
2018-06-10T19:01:24.852Z,7.77
2018-06-10T19:04:00.917Z,7.93
2018-06-10T19:06:37.567Z,7.87
2018-06-10T19:09:14.120Z,7.67
2018-06-10T19:11:49.762Z,7.60
2018-06-10T19:14:25.602Z,10.20
2018-06-10T19:17:02.192Z,9.83
2018-06-10T19:19:39.340Z,8.73
2018-06-10T19:22:15.447Z,8.13
2018-06-10T19:24:51.921Z,7.80
2018-06-10T19:27:28.165Z,18.83
2018-06-10T19:30:03.633Z,10.63
2018-06-10T19:32:39.101Z,8.07
2018-06-10T19:35:14.532Z,8.70
2018-06-10T19:37:50.071Z,9.57
2018-06-10T19:40:25.728Z,9.43
2018-06-10T19:43:01.827Z,10.40
2018-06-10T19:45:37.850Z,10.33
2018-06-10T19:48:14.052Z,10.03
2018-06-10T19:50:50.683Z,8.90
2018-06-10T19:53:26.178Z,8.00
2018-06-10T19:56:01.954Z,9.77
2018-06-10T19:58:38.850Z,9.40
2018-06-10T20:01:15.189Z,9.57
2018-06-10T20:03:50.989Z,9.27
2018-06-10T20:06:28.432Z,8.60
2018-06-10T20:09:04.996Z,9.73
2018-06-10T20:11:41.381Z,9.67
2018-06-10T20:14:17.620Z,9.50
2018-06-10T20:16:53.566Z,9.50
2018-06-10T20:19:30.975Z,8.83
2018-06-10T20:22:07.797Z,9.87
2018-06-10T20:24:44.462Z,9.93
2018-06-10T20:27:22.289Z,9.20
2018-06-10T20:29:58.295Z,8.83
2018-06-10T20:32:35.361Z,9.33
2018-06-10T20:35:11.654Z,9.07
2018-06-10T20:37:48.470Z,8.97
2018-06-10T20:40:24.914Z,9.17
2018-06-10T20:43:01.181Z,8.97
2018-06-10T20:45:37.577Z,8.87
2018-06-10T20:48:14.590Z,9.20
2018-06-10T20:50:50.283Z,9.83
2018-06-10T20:53:27.736Z,9.07
2018-06-10T20:56:04.732Z,10.43
2018-06-10T20:58:40.523Z,9.07
2018-06-10T21:01:17.595Z,10.40
2018-06-10T21:03:54.533Z,10.30
2018-06-10T21:06:30.408Z,9.13
2018-06-10T21:09:08.221Z,9.40
2018-06-10T21:11:44.989Z,9.87
2018-06-10T21:14:22.259Z,11.13
2018-06-10T21:16:58.455Z,11.67
2018-06-10T21:19:34.456Z,12.33
2018-06-10T21:22:11.019Z,31.33
2018-06-10T21:24:46.851Z,10.03
2018-06-10T21:27:23.916Z,10.10
2018-06-10T21:30:00.208Z,10.00
2018-06-10T21:32:36.038Z,10.50
2018-06-10T21:35:11.718Z,10.57
2018-06-10T21:37:47.735Z,9.70
2018-06-10T21:40:23.645Z,10.93
2018-06-10T21:42:59.091Z,11.13
2018-06-10T21:45:34.562Z,11.07
2018-06-10T21:48:10.355Z,11.00
2018-06-10T21:50:46.106Z,11.47
2018-06-10T21:53:21.584Z,11.30
2018-06-10T21:55:57.082Z,12.07
2018-06-10T21:58:32.470Z,11.80
2018-06-10T22:01:08.767Z,11.23
2018-06-10T22:03:44.379Z,11.93
2018-06-10T22:06:20.503Z,11.07
2018-06-10T22:08:56.139Z,11.67
2018-06-10T22:11:31.783Z,12.07
2018-06-10T22:14:07.791Z,11.80
2018-06-10T22:16:43.597Z,10.70
2018-06-10T22:19:19.466Z,12.03
2018-06-10T22:21:55.287Z,11.73
2018-06-10T22:24:30.858Z,12.00
2018-06-10T22:27:06.603Z,11.43
2018-06-10T22:29:42.386Z,11.80
2018-06-10T22:32:18.577Z,12.40
2018-06-10T22:34:54.206Z,13.73
2018-06-10T22:37:30.749Z,11.97
2018-06-10T22:40:06.239Z,13.20
2018-06-10T22:42:41.669Z,12.17
2018-06-10T22:45:17.741Z,12.60
2018-06-10T22:47:53.431Z,12.47
2018-06-10T22:50:29.503Z,12.20
2018-06-10T22:55:17.541Z,12.60
2018-06-10T22:57:53.214Z,12.10
2018-06-10T23:00:29.169Z,13.23
2018-06-10T23:03:04.964Z,11.83
2018-06-10T23:05:40.467Z,13.43
2018-06-10T23:08:17.801Z,12.83
2018-06-10T23:10:53.558Z,12.63
2018-06-10T23:13:29.455Z,13.37
2018-06-10T23:16:05.278Z,13.80
2018-06-10T23:18:40.527Z,14.87
2018-06-10T23:21:16.196Z,14.80
2018-06-10T23:23:51.696Z,16.10
2018-06-10T23:26:27.372Z,15.03
2018-06-10T23:29:03.124Z,14.13
2018-06-10T23:31:38.968Z,15.07
2018-06-10T23:34:14.507Z,14.63
2018-06-10T23:36:50.042Z,14.53
2018-06-10T23:39:25.837Z,14.70
2018-06-10T23:42:01.972Z,15.83
2018-06-10T23:44:37.612Z,14.60
2018-06-10T23:47:13.264Z,16.37
2018-06-10T23:49:48.970Z,15.00
2018-06-10T23:52:24.816Z,15.57
2018-06-10T23:55:00.472Z,15.80
2018-06-10T23:57:36.181Z,15.20
